Time;durP1;ratioP1;P1;durP2;ratioP2;P2;SDS_P1;SDS_P2;PMS_P1;PMS_P2;Temp;Humidity;BMP_temperature;BMP_pressure;BME280_temperature;BME280_humidity;BME280_pressure;Samples;Min_cycle;Max_cycle;Signal;HPM_P1;HPM_P2
2023/08/17 00:00:09;;;;;;;6.40;1.75;;;17.80;99.90;;;;;;5047081;28;20041;-78
2023/08/17 00:02:35;;;;;;;7.40;2.15;;;17.70;99.90;;;;;;5061263;28;20055;-78
2023/08/17 00:05:01;;;;;;;4.13;1.40;;;17.70;99.90;;;;;;5048233;28;20052;-78
2023/08/17 00:07:27;;;;;;;5.85;1.50;;;17.70;99.90;;;;;;5044008;28;20042;-78
2023/08/17 00:09:52;;;;;;;5.50;1.45;;;17.70;99.90;;;;;;5063992;28;20033;-78
2023/08/17 00:12:18;;;;;;;6.57;2.00;;;17.70;99.90;;;;;;5066776;28;20541;-78
2023/08/17 00:14:43;;;;;;;6.05;1.88;;;17.70;99.90;;;;;;5044282;28;20151;-78
2023/08/17 00:17:09;;;;;;;8.43;1.75;;;17.70;99.90;;;;;;5050035;28;20052;-78
2023/08/17 00:19:35;;;;;;;5.35;1.40;;;17.70;99.90;;;;;;5057086;28;20033;-78
2023/08/17 00:22:00;;;;;;;4.30;1.35;;;17.60;99.90;;;;;;5045308;28;20509;-78
2023/08/17 00:24:26;;;;;;;7.30;2.15;;;17.60;99.90;;;;;;5044763;28;20040;-78
2023/08/17 00:26:52;;;;;;;7.07;2.47;;;17.60;99.90;;;;;;5067358;28;20508;-78
2023/08/17 00:29:17;;;;;;;6.00;1.27;;;17.60;99.90;;;;;;5046779;28;20120;-78
2023/08/17 00:31:43;;;;;;;5.20;1.55;;;17.60;99.90;;;;;;5059095;28;20037;-78
2023/08/17 00:34:08;;;;;;;7.75;1.80;;;17.60;99.90;;;;;;5049639;28;20041;-78
2023/08/17 00:36:34;;;;;;;10.15;1.77;;;17.60;99.90;;;;;;5062968;28;20492;-79
2023/08/17 00:39:00;;;;;;;4.22;1.38;;;17.60;99.90;;;;;;5054365;28;20251;-78
2023/08/17 00:41:30;;;;;;;7.20;1.77;;;17.60;99.90;;;;;;5065411;28;20542;-79
2023/08/17 00:43:56;;;;;;;4.32;1.30;;;17.60;99.90;;;;;;5049916;28;20498;-78
2023/08/17 00:46:22;;;;;;;7.82;1.75;;;17.50;99.90;;;;;;5043305;28;20124;-78
2023/08/17 00:48:49;;;;;;;7.28;1.90;;;17.50;99.90;;;;;;5047441;28;20250;-78
2023/08/17 00:51:15;;;;;;;6.57;2.05;;;17.50;99.90;;;;;;5057548;28;20041;-79
2023/08/17 00:53:42;;;;;;;9.35;1.90;;;17.50;99.90;;;;;;5046670;28;20045;-78
2023/08/17 00:56:08;;;;;;;6.20;1.42;;;17.50;99.90;;;;;;5059912;28;20040;-79
2023/08/17 00:58:33;;;;;;;3.90;1.52;;;17.50;99.90;;;;;;5041157;28;20032;-78
2023/08/17 01:01:00;;;;;;;7.68;1.85;;;17.50;99.90;;;;;;5059075;28;20044;-78
2023/08/17 01:03:28;;;;;;;11.05;1.85;;;17.50;99.90;;;;;;5065312;28;20028;-79
2023/08/17 01:05:54;;;;;;;6.35;2.10;;;17.50;99.90;;;;;;5060224;28;20039;-78
2023/08/17 01:08:19;;;;;;;7.03;1.80;;;17.50;99.90;;;;;;5065120;28;20045;-79
2023/08/17 01:10:55;;;;;;;6.78;1.92;;;17.40;99.90;;;;;;5059273;28;20032;-78
2023/08/17 01:13:43;;;;;;;5.32;1.73;;;17.40;99.90;;;;;;5067083;28;20047;-78
2023/08/17 01:16:15;;;;;;;5.20;2.20;;;17.40;99.90;;;;;;5040363;28;20592;-78
2023/08/17 01:18:43;;;;;;;5.38;1.63;;;17.30;99.90;;;;;;5057413;28;20479;-79
2023/08/17 01:21:13;;;;;;;4.75;1.80;;;17.30;99.90;;;;;;5044277;28;20067;-78
2023/08/17 01:23:39;;;;;;;9.20;2.20;;;17.20;99.90;;;;;;5047251;28;20098;-78
2023/08/17 01:26:04;;;;;;;5.25;1.58;;;17.20;99.90;;;;;;5068246;28;20040;-78
2023/08/17 01:28:30;;;;;;;5.95;1.50;;;17.30;99.90;;;;;;5071416;28;20036;-78
2023/08/17 01:31:11;;;;;;;10.13;1.90;;;17.30;99.90;;;;;;5064208;28;20047;-78
2023/08/17 01:33:54;;;;;;;3.67;1.67;;;17.20;99.90;;;;;;5049613;28;20044;-79
2023/08/17 01:36:26;;;;;;;8.30;1.85;;;17.20;99.90;;;;;;5051336;28;20041;-78
2023/08/17 01:38:55;;;;;;;5.57;1.85;;;17.20;99.90;;;;;;5072967;28;20036;-79
2023/08/17 01:41:23;;;;;;;5.80;1.83;;;17.10;99.90;;;;;;5064912;28;20036;-78
2023/08/17 01:43:50;;;;;;;3.05;1.30;;;17.10;99.90;;;;;;5047409;28;20098;-79
2023/08/17 01:46:17;;;;;;;7.38;1.58;;;17.10;99.90;;;;;;5049636;28;20127;-78
2023/08/17 01:48:44;;;;;;;8.55;1.95;;;17.10;99.90;;;;;;5047834;28;20060;-79
2023/08/17 01:51:11;;;;;;;3.97;1.35;;;17.00;99.90;;;;;;5068912;28;20048;-79
2023/08/17 01:53:37;;;;;;;8.63;2.10;;;17.00;99.90;;;;;;5037175;28;20040;-79
2023/08/17 01:56:03;;;;;;;8.60;1.88;;;17.00;99.90;;;;;;5045428;28;20037;-78
2023/08/17 01:58:29;;;;;;;8.27;1.63;;;16.90;99.90;;;;;;5072156;28;20063;-79
2023/08/17 02:00:54;;;;;;;4.70;1.60;;;16.90;99.90;;;;;;5068692;28;20117;-79
2023/08/17 02:03:20;;;;;;;6.28;1.65;;;16.90;99.90;;;;;;5047349;28;20037;-79
2023/08/17 02:05:46;;;;;;;3.20;1.40;;;16.90;99.90;;;;;;5045216;28;20063;-78
2023/08/17 02:08:12;;;;;;;7.28;1.95;;;16.80;99.90;;;;;;5073849;28;20063;-78
2023/08/17 02:10:37;;;;;;;4.53;1.40;;;16.80;99.90;;;;;;5067801;28;20389;-78
2023/08/17 02:13:03;;;;;;;4.32;1.50;;;16.80;99.90;;;;;;5072299;28;20044;-79
2023/08/17 02:15:29;;;;;;;4.70;2.05;;;16.80;99.90;;;;;;5054757;28;20637;-79
2023/08/17 02:17:56;;;;;;;5.53;1.90;;;16.70;99.90;;;;;;5067112;28;20036;-78
2023/08/17 02:20:22;;;;;;;6.97;2.17;;;16.80;99.90;;;;;;5047630;28;20431;-78
2023/08/17 02:22:47;;;;;;;6.88;2.08;;;16.80;99.90;;;;;;5073423;28;20048;-79
2023/08/17 02:25:13;;;;;;;7.88;1.98;;;16.80;99.90;;;;;;5069117;28;20048;-78
2023/08/17 02:27:39;;;;;;;5.07;1.45;;;16.80;99.90;;;;;;5062572;28;20036;-79
2023/08/17 02:30:05;;;;;;;6.13;1.85;;;16.70;99.90;;;;;;5048669;28;20502;-78
2023/08/17 02:32:31;;;;;;;7.30;1.75;;;16.70;99.90;;;;;;5047502;28;20059;-78
2023/08/17 02:34:56;;;;;;;8.82;2.10;;;16.70;99.90;;;;;;5045785;28;20048;-79
2023/08/17 02:37:22;;;;;;;5.70;1.67;;;16.70;99.90;;;;;;5051966;28;20082;-79
2023/08/17 02:39:47;;;;;;;6.05;1.60;;;16.70;99.90;;;;;;5030929;28;20105;-78
2023/08/17 02:42:13;;;;;;;7.18;1.73;;;16.70;99.90;;;;;;5058553;28;20587;-78
2023/08/17 02:44:39;;;;;;;8.18;2.47;;;16.70;99.90;;;;;;5067945;28;20043;-79
2023/08/17 02:47:05;;;;;;;8.02;2.35;;;16.70;99.90;;;;;;5041785;28;20036;-79
2023/08/17 02:49:30;;;;;;;6.10;1.92;;;16.70;99.90;;;;;;5047674;28;20061;-79
2023/08/17 02:51:56;;;;;;;4.40;1.67;;;16.70;99.90;;;;;;5041075;28;20044;-79
2023/08/17 02:54:22;;;;;;;4.65;1.65;;;16.70;99.90;;;;;;5069156;28;20062;-79
2023/08/17 02:56:47;;;;;;;5.25;1.85;;;16.60;99.90;;;;;;5063911;28;20087;-79
2023/08/17 02:59:13;;;;;;;6.90;2.20;;;16.60;99.90;;;;;;5046045;28;20037;-79
2023/08/17 03:01:39;;;;;;;4.70;1.77;;;16.60;99.90;;;;;;5047906;28;20618;-78
2023/08/17 03:04:05;;;;;;;7.20;2.67;;;16.70;99.90;;;;;;5062271;28;20464;-79
2023/08/17 03:06:30;;;;;;;5.57;2.17;;;16.70;99.90;;;;;;5047291;28;20085;-78
2023/08/17 03:08:56;;;;;;;7.68;1.98;;;16.70;99.90;;;;;;5049345;28;20040;-79
2023/08/17 03:11:22;;;;;;;7.18;2.47;;;16.70;99.90;;;;;;5068480;28;20050;-79
2023/08/17 03:13:48;;;;;;;7.63;2.42;;;16.70;99.90;;;;;;5051122;28;20395;-79
2023/08/17 03:16:15;;;;;;;12.45;1.98;;;16.60;99.90;;;;;;5051162;28;20112;-79
2023/08/17 03:18:41;;;;;;;6.97;1.90;;;16.60;99.90;;;;;;5061245;28;20162;-79
2023/08/17 03:21:07;;;;;;;6.70;1.90;;;16.60;99.90;;;;;;5047601;28;20154;-79
2023/08/17 03:23:33;;;;;;;6.85;1.67;;;16.60;99.90;;;;;;5064243;28;20047;-79
2023/08/17 03:25:58;;;;;;;9.02;1.85;;;16.60;99.90;;;;;;5042537;28;20036;-79
2023/08/17 03:28:25;;;;;;;8.52;2.10;;;16.60;99.90;;;;;;5043759;28;20048;-79
2023/08/17 03:30:55;;;;;;;5.63;2.28;;;16.70;99.90;;;;;;5069114;28;20038;-79
2023/08/17 03:33:21;;;;;;;7.47;2.33;;;16.60;99.90;;;;;;5045249;28;20102;-79
2023/08/17 03:35:47;;;;;;;4.82;1.85;;;16.60;99.90;;;;;;5049214;28;20532;-78
2023/08/17 03:38:13;;;;;;;7.63;2.20;;;16.60;99.90;;;;;;5068022;28;20052;-79
2023/08/17 03:40:39;;;;;;;7.07;2.33;;;16.60;99.90;;;;;;5049972;28;20033;-79
2023/08/17 03:43:04;;;;;;;7.47;2.03;;;16.50;99.90;;;;;;5051041;28;20051;-79
2023/08/17 03:45:30;;;;;;;8.40;2.40;;;16.50;99.90;;;;;;5059373;28;20130;-79
2023/08/17 03:47:56;;;;;;;7.13;2.20;;;16.60;99.90;;;;;;5047779;28;20044;-79
2023/08/17 03:50:22;;;;;;;9.00;2.10;;;16.50;99.90;;;;;;5048539;28;20403;-79
2023/08/17 03:52:48;;;;;;;5.40;2.10;;;16.40;99.90;;;;;;5047032;28;20059;-79
2023/08/17 03:55:13;;;;;;;7.40;2.13;;;16.40;99.90;;;;;;5045371;28;20045;-79
2023/08/17 03:57:39;;;;;;;7.15;2.47;;;16.40;99.90;;;;;;5041763;28;20052;-79
2023/08/17 04:00:06;;;;;;;6.60;1.80;;;16.40;99.90;;;;;;5055103;28;20095;-79
2023/08/17 04:02:31;;;;;;;7.25;2.30;;;16.30;99.90;;;;;;5062419;28;20056;-79
2023/08/17 04:04:57;;;;;;;7.47;2.10;;;16.30;99.90;;;;;;5068360;28;20040;-79
2023/08/17 04:07:23;;;;;;;7.32;2.28;;;16.30;99.90;;;;;;5041760;28;20214;-79
2023/08/17 04:09:49;;;;;;;7.38;1.88;;;16.30;99.90;;;;;;5065676;28;20047;-79
2023/08/17 04:12:15;;;;;;;6.60;1.90;;;16.30;99.90;;;;;;5062892;28;20044;-79
2023/08/17 04:14:40;;;;;;;3.95;1.55;;;16.30;99.90;;;;;;5036869;28;20116;-79
2023/08/17 04:17:06;;;;;;;5.85;1.65;;;16.20;99.90;;;;;;5047467;28;20052;-79
2023/08/17 04:19:32;;;;;;;5.70;1.65;;;16.20;99.90;;;;;;5029354;28;20120;-79
2023/08/17 04:21:58;;;;;;;6.78;1.70;;;16.20;99.90;;;;;;5045641;28;20056;-80
2023/08/17 04:24:24;;;;;;;7.45;2.17;;;16.20;99.90;;;;;;5042126;28;20040;-79
2023/08/17 04:26:50;;;;;;;7.35;2.38;;;16.20;99.90;;;;;;5062652;28;20044;-80
2023/08/17 04:29:15;;;;;;;9.15;2.28;;;16.20;99.90;;;;;;5044787;28;20041;-78
2023/08/17 04:31:41;;;;;;;6.38;1.70;;;16.20;99.90;;;;;;5043097;28;20051;-80
2023/08/17 04:34:07;;;;;;;8.63;2.10;;;16.20;99.90;;;;;;5059447;28;20044;-80
2023/08/17 04:36:33;;;;;;;4.22;1.77;;;16.20;99.90;;;;;;5051583;28;20048;-78
2023/08/17 04:38:58;;;;;;;7.40;2.33;;;16.20;99.90;;;;;;5041934;28;20048;-79
2023/08/17 04:41:25;;;;;;;4.80;2.05;;;16.20;99.90;;;;;;5043965;28;20041;-79
2023/08/17 04:43:50;;;;;;;4.43;1.50;;;16.10;99.90;;;;;;5045442;28;20115;-79
2023/08/17 04:46:16;;;;;;;5.93;1.60;;;16.10;99.90;;;;;;5061941;28;20149;-79
2023/08/17 04:48:41;;;;;;;4.82;1.92;;;16.10;99.90;;;;;;5043862;28;20403;-79
2023/08/17 04:51:07;;;;;;;4.80;1.80;;;16.20;99.90;;;;;;5044659;28;20463;-79
2023/08/17 04:53:33;;;;;;;8.60;1.60;;;16.20;99.90;;;;;;5056298;28;20224;-79
2023/08/17 04:55:59;;;;;;;4.63;1.80;;;16.10;99.90;;;;;;5066822;28;20118;-79
2023/08/17 04:58:24;;;;;;;7.75;2.15;;;16.10;99.90;;;;;;5061017;28;20040;-79
2023/08/17 05:00:51;;;;;;;7.70;2.42;;;16.10;99.90;;;;;;5042620;28;20029;-79
2023/08/17 05:03:16;;;;;;;6.15;1.40;;;16.10;99.90;;;;;;5053536;28;20043;-79
2023/08/17 05:05:42;;;;;;;6.40;2.30;;;16.20;99.90;;;;;;5044631;28;20130;-79
2023/08/17 05:08:08;;;;;;;5.15;1.88;;;16.10;99.90;;;;;;5066778;28;20140;-79
2023/08/17 05:10:34;;;;;;;6.63;2.08;;;16.10;99.90;;;;;;5066475;28;20044;-79
2023/08/17 05:12:59;;;;;;;7.80;2.00;;;16.10;99.90;;;;;;5049266;28;20032;-79
2023/08/17 05:15:25;;;;;;;6.47;1.70;;;16.10;99.90;;;;;;5057092;28;20139;-79
2023/08/17 05:17:51;;;;;;;10.13;2.10;;;16.10;99.90;;;;;;5062696;28;20523;-79
2023/08/17 05:20:16;;;;;;;9.63;2.20;;;16.20;99.90;;;;;;5047667;28;20048;-79
2023/08/17 05:22:42;;;;;;;8.65;2.50;;;16.10;99.90;;;;;;5060423;28;20033;-79
2023/08/17 05:25:08;;;;;;;5.47;2.05;;;16.20;99.90;;;;;;5060783;28;20033;-79
2023/08/17 05:27:34;;;;;;;6.20;1.90;;;16.10;99.90;;;;;;5058813;28;20323;-79
2023/08/17 05:30:00;;;;;;;7.25;2.58;;;16.20;99.90;;;;;;5057632;28;20472;-79
2023/08/17 05:32:25;;;;;;;5.05;2.20;;;16.20;99.90;;;;;;5038700;28;20125;-79
2023/08/17 05:34:51;;;;;;;5.40;2.35;;;16.20;99.90;;;;;;5044501;28;20045;-79
2023/08/17 05:37:17;;;;;;;5.93;2.15;;;16.20;99.90;;;;;;5065629;28;20044;-79
2023/08/17 05:39:43;;;;;;;7.72;2.25;;;16.20;99.90;;;;;;5059625;28;20037;-79
2023/08/17 05:42:09;;;;;;;6.55;2.35;;;16.20;99.90;;;;;;5066819;28;20087;-79
2023/08/17 05:44:35;;;;;;;6.60;2.10;;;16.20;99.90;;;;;;5044025;28;20051;-79
2023/08/17 05:47:01;;;;;;;6.53;1.98;;;16.20;99.90;;;;;;5043543;28;20044;-79
2023/08/17 05:49:27;;;;;;;5.78;2.10;;;16.20;99.90;;;;;;5039502;28;20045;-79
2023/08/17 05:51:53;;;;;;;9.35;2.40;;;16.20;99.90;;;;;;5045288;28;20032;-79
2023/08/17 05:54:18;;;;;;;4.47;1.48;;;16.20;99.90;;;;;;5045496;28;20040;-79
2023/08/17 05:56:46;;;;;;;9.80;2.33;;;16.20;99.90;;;;;;5045541;28;20040;-79
2023/08/17 05:59:13;;;;;;;4.70;1.60;;;16.30;99.90;;;;;;5043938;28;20047;-80
2023/08/17 06:01:39;;;;;;;5.00;1.65;;;16.30;99.90;;;;;;5043704;28;20040;-79
2023/08/17 06:04:05;;;;;;;9.90;2.08;;;16.40;99.90;;;;;;5039983;28;20045;-79
2023/08/17 06:06:31;;;;;;;5.07;2.05;;;16.40;99.90;;;;;;5033519;28;20045;-77
2023/08/17 06:08:57;;;;;;;8.68;1.92;;;16.50;99.90;;;;;;5038394;28;20098;-81
2023/08/17 06:11:23;;;;;;;6.07;1.80;;;16.50;99.90;;;;;;5046491;28;20045;-80
2023/08/17 06:13:49;;;;;;;8.85;2.17;;;16.50;99.90;;;;;;5041246;28;20615;-81
2023/08/17 06:16:15;;;;;;;5.97;1.55;;;16.50;99.90;;;;;;5044752;28;20043;-81
2023/08/17 06:18:41;;;;;;;4.95;1.58;;;16.60;99.90;;;;;;5041784;28;20051;-81
2023/08/17 06:21:07;;;;;;;4.78;1.52;;;16.60;99.90;;;;;;5041435;28;20088;-81
2023/08/17 06:23:33;;;;;;;7.85;2.00;;;16.60;99.90;;;;;;5047347;28;20036;-81
2023/08/17 06:26:00;;;;;;;6.07;1.70;;;16.70;99.90;;;;;;5047427;28;20041;-81
2023/08/17 06:28:26;;;;;;;7.10;1.90;;;16.70;99.90;;;;;;5044578;28;20472;-81
2023/08/17 06:30:53;;;;;;;4.20;1.80;;;16.80;99.90;;;;;;5042912;28;20045;-81
2023/08/17 06:33:19;;;;;;;6.18;1.52;;;16.80;99.90;;;;;;5060171;28;20542;-81
2023/08/17 06:35:45;;;;;;;7.68;1.73;;;16.80;99.90;;;;;;5050416;28;20051;-81
2023/08/17 06:38:11;;;;;;;9.25;1.95;;;16.80;99.90;;;;;;5046037;28;20045;-81
2023/08/17 06:40:37;;;;;;;7.60;1.92;;;16.90;99.90;;;;;;5041378;28;20103;-80
2023/08/17 06:43:02;;;;;;;9.93;1.77;;;16.90;99.90;;;;;;5042217;28;20068;-81
2023/08/17 06:45:28;;;;;;;8.05;2.40;;;17.00;99.90;;;;;;5047508;28;20037;-81
2023/08/17 06:47:54;;;;;;;5.18;1.73;;;17.10;99.90;;;;;;5045021;28;20117;-81
2023/08/17 06:50:19;;;;;;;5.20;1.60;;;17.10;99.90;;;;;;5042499;28;20128;-80
2023/08/17 06:52:45;;;;;;;5.13;1.30;;;17.10;99.90;;;;;;5048130;28;20041;-81
2023/08/17 06:55:11;;;;;;;6.00;1.48;;;17.20;99.90;;;;;;5042453;28;20045;-81
2023/08/17 06:57:37;;;;;;;7.63;1.48;;;17.20;99.90;;;;;;5041371;28;20044;-81
2023/08/17 07:00:05;;;;;;;4.45;1.23;;;17.20;99.90;;;;;;5049375;28;20041;-81
2023/08/17 07:02:31;;;;;;;5.63;1.17;;;17.20;99.90;;;;;;5040872;28;20041;-81
2023/08/17 07:04:57;;;;;;;5.55;1.73;;;17.20;99.90;;;;;;5045789;28;20043;-80
2023/08/17 07:07:22;;;;;;;9.70;1.40;;;17.20;99.90;;;;;;5036234;28;20945;-80
2023/08/17 07:09:48;;;;;;;4.35;1.25;;;17.20;99.90;;;;;;5035958;28;20037;-80
2023/08/17 07:12:14;;;;;;;7.65;1.40;;;17.20;99.90;;;;;;5038795;28;21743;-80
2023/08/17 07:14:39;;;;;;;4.90;1.42;;;17.20;99.90;;;;;;5044037;28;20039;-80
2023/08/17 07:17:05;;;;;;;4.70;1.45;;;17.30;99.90;;;;;;5043242;28;20037;-81
2023/08/17 07:19:30;;;;;;;5.75;1.30;;;17.30;99.90;;;;;;5038556;28;20033;-80
2023/08/17 07:21:56;;;;;;;5.22;1.30;;;17.40;99.90;;;;;;5041058;28;20028;-81
2023/08/17 07:24:22;;;;;;;6.72;1.23;;;17.40;99.90;;;;;;5045717;28;20095;-80
2023/08/17 07:26:47;;;;;;;3.95;1.20;;;17.50;99.90;;;;;;5048122;28;20037;-80
2023/08/17 07:29:13;;;;;;;3.45;1.20;;;17.50;99.90;;;;;;5046892;28;20051;-81
2023/08/17 07:31:39;;;;;;;3.90;0.95;;;17.50;99.90;;;;;;5044117;28;20029;-81
2023/08/17 07:34:05;;;;;;;5.53;0.90;;;17.60;99.90;;;;;;5042133;28;20264;-81
2023/08/17 07:36:32;;;;;;;3.97;1.00;;;17.60;99.90;;;;;;5047577;28;20037;-82
2023/08/17 07:38:58;;;;;;;3.80;1.05;;;17.60;99.90;;;;;;5047195;28;20044;-82
2023/08/17 07:41:24;;;;;;;7.15;1.00;;;17.70;99.90;;;;;;5043751;28;20080;-82
2023/08/17 07:43:50;;;;;;;6.80;1.08;;;17.70;99.90;;;;;;5038332;28;20052;-81
2023/08/17 07:46:16;;;;;;;4.25;1.10;;;17.70;99.90;;;;;;5046142;28;20064;-81
2023/08/17 07:48:41;;;;;;;4.20;0.95;;;17.70;99.90;;;;;;5035550;28;20608;-82
2023/08/17 07:51:07;;;;;;;5.95;1.42;;;17.70;99.90;;;;;;5046523;28;20040;-82
2023/08/17 07:53:33;;;;;;;5.03;1.25;;;17.80;99.90;;;;;;5046323;28;20133;-82
2023/08/17 07:55:58;;;;;;;5.13;1.30;;;17.80;99.90;;;;;;5043379;28;20049;-82
2023/08/17 07:58:24;;;;;;;4.60;0.90;;;17.80;99.90;;;;;;5041152;28;20041;-82
2023/08/17 08:00:50;;;;;;;5.38;1.02;;;17.90;99.90;;;;;;5043246;28;20033;-82
2023/08/17 08:03:15;;;;;;;3.33;0.85;;;17.90;99.90;;;;;;5047021;28;20456;-82
2023/08/17 08:05:41;;;;;;;5.03;0.98;;;18.00;99.90;;;;;;5047044;28;20040;-81
2023/08/17 08:08:07;;;;;;;1.92;0.70;;;18.00;99.90;;;;;;5046374;28;20048;-82
2023/08/17 08:10:33;;;;;;;6.07;1.00;;;18.00;99.90;;;;;;5047162;28;20114;-82
2023/08/17 08:12:58;;;;;;;3.45;0.85;;;18.00;99.90;;;;;;5045585;28;20049;-82
2023/08/17 08:15:24;;;;;;;5.63;1.10;;;18.00;99.90;;;;;;5047397;28;20445;-82
2023/08/17 08:17:50;;;;;;;5.30;1.35;;;18.00;99.90;;;;;;5045712;28;20527;-81
2023/08/17 08:20:15;;;;;;;3.75;1.17;;;18.00;99.90;;;;;;5047054;28;20480;-82
2023/08/17 08:22:41;;;;;;;3.15;0.80;;;18.00;99.90;;;;;;5047811;28;20120;-83
2023/08/17 08:25:07;;;;;;;3.05;0.95;;;18.00;99.90;;;;;;5045772;28;20041;-82
2023/08/17 08:27:32;;;;;;;4.50;0.82;;;18.00;99.90;;;;;;5038552;28;20374;-82
2023/08/17 08:29:58;;;;;;;6.85;1.40;;;18.10;99.90;;;;;;5046297;28;20051;-82
2023/08/17 08:32:24;;;;;;;3.33;0.93;;;18.10;99.90;;;;;;5036804;28;20042;-82
2023/08/17 08:34:49;;;;;;;5.13;1.00;;;18.20;99.90;;;;;;5039594;28;20569;-82
2023/08/17 08:37:15;;;;;;;5.07;0.82;;;18.30;99.90;;;;;;5043754;28;20404;-81
2023/08/17 08:39:51;;;;;;;4.68;1.13;;;18.40;99.90;;;;;;5045340;28;20029;-81
2023/08/17 08:42:17;;;;;;;6.10;1.08;;;18.50;99.90;;;;;;5053549;28;20042;-82
2023/08/17 08:44:43;;;;;;;3.80;0.80;;;18.60;99.90;;;;;;5037727;28;20068;-82
2023/08/17 08:47:10;;;;;;;5.40;1.25;;;18.70;99.90;;;;;;5041360;28;20614;-82
2023/08/17 08:49:39;;;;;;;9.27;1.10;;;18.80;99.90;;;;;;5041435;28;20064;-82
2023/08/17 08:52:08;;;;;;;5.82;1.10;;;18.90;99.90;;;;;;5042723;28;20487;-82
2023/08/17 08:54:36;;;;;;;2.58;0.93;;;18.90;99.90;;;;;;5038014;28;20048;-83
2023/08/17 08:57:06;;;;;;;3.67;0.90;;;19.00;99.90;;;;;;5054184;28;20051;-83
2023/08/17 08:59:33;;;;;;;4.28;1.00;;;19.10;99.90;;;;;;5043836;28;20128;-83
2023/08/17 09:01:59;;;;;;;4.43;0.80;;;19.10;99.90;;;;;;5041730;28;20044;-83
2023/08/17 09:04:25;;;;;;;3.15;0.90;;;19.10;99.90;;;;;;5043205;28;20075;-83
2023/08/17 09:06:51;;;;;;;4.88;0.85;;;19.20;99.90;;;;;;5032955;28;20037;-82
2023/08/17 09:09:19;;;;;;;5.82;1.10;;;19.20;99.90;;;;;;5035981;28;20076;-82
2023/08/17 09:11:45;;;;;;;2.72;1.08;;;19.30;99.90;;;;;;5039327;28;20116;-82
2023/08/17 09:14:10;;;;;;;5.55;0.98;;;19.40;99.90;;;;;;5038586;28;20120;-83
2023/08/17 09:16:36;;;;;;;3.67;0.88;;;19.40;99.90;;;;;;5042362;28;20049;-82
2023/08/17 09:19:01;;;;;;;4.85;1.00;;;19.40;99.90;;;;;;5041408;28;20053;-83
2023/08/17 09:21:31;;;;;;;3.78;1.25;;;19.50;99.90;;;;;;5045080;28;20041;-82
2023/08/17 09:23:57;;;;;;;4.88;1.30;;;19.60;99.90;;;;;;5041690;28;20040;-82
2023/08/17 09:26:24;;;;;;;13.18;1.63;;;19.60;99.90;;;;;;5046515;28;20428;-82
2023/08/17 09:28:50;;;;;;;4.88;1.40;;;19.70;99.90;;;;;;5047065;28;20600;-82
2023/08/17 09:31:20;;;;;;;6.53;1.67;;;19.70;99.90;;;;;;5046105;28;20040;-83
2023/08/17 09:33:49;;;;;;;11.73;1.85;;;19.80;99.90;;;;;;5046199;28;20037;-83
2023/08/17 09:36:19;;;;;;;4.10;0.98;;;19.80;99.90;;;;;;5046892;28;20068;-83
2023/08/17 09:38:48;;;;;;;5.03;1.00;;;19.80;99.90;;;;;;5040328;28;20051;-82
2023/08/17 09:41:14;;;;;;;4.45;1.10;;;19.80;99.90;;;;;;5036275;28;20029;-82
2023/08/17 09:43:41;;;;;;;4.45;1.17;;;19.80;99.90;;;;;;5037981;28;20532;-82
2023/08/17 09:46:07;;;;;;;8.80;1.20;;;19.90;99.90;;;;;;5044062;28;20049;-82
2023/08/17 09:48:33;;;;;;;5.30;1.20;;;19.90;99.90;;;;;;5052231;28;20055;-82
2023/08/17 09:51:01;;;;;;;5.40;0.73;;;20.00;99.90;;;;;;5051608;28;20434;-82
2023/08/17 09:53:26;;;;;;;4.13;1.25;;;20.00;99.90;;;;;;5043361;28;20092;-83
2023/08/17 09:55:55;;;;;;;9.57;1.83;;;20.10;99.90;;;;;;5044431;28;20064;-82
2023/08/17 09:58:20;;;;;;;9.77;1.75;;;20.10;99.90;;;;;;5068260;28;20113;-82
2023/08/17 10:00:49;;;;;;;6.38;1.60;;;20.20;99.90;;;;;;5047820;28;20037;-83
2023/08/17 10:03:16;;;;;;;5.53;1.38;;;20.10;99.90;;;;;;5034706;28;20068;-83
2023/08/17 10:05:55;;;;;;;6.80;1.05;;;20.10;99.90;;;;;;5050418;28;20041;-81
2023/08/17 10:08:22;;;;;;;4.90;0.90;;;20.10;99.90;;;;;;5064849;28;20029;-81
2023/08/17 10:10:48;;;;;;;6.45;0.93;;;20.20;99.90;;;;;;5050610;28;20083;-81
2023/08/17 10:13:23;;;;;;;4.32;1.10;;;20.30;99.90;;;;;;5065986;28;20047;-80
2023/08/17 10:16:01;;;;;;;5.03;0.85;;;20.30;99.90;;;;;;5047818;28;20041;-81
2023/08/17 10:18:48;;;;;;;6.22;1.42;;;20.40;99.90;;;;;;5044922;28;20051;-81
2023/08/17 10:21:29;;;;;;;6.22;1.10;;;20.50;99.90;;;;;;5043403;28;20037;-81
2023/08/17 10:23:57;;;;;;;6.80;1.20;;;20.60;99.90;;;;;;5066773;28;20044;-81
2023/08/17 10:26:23;;;;;;;4.63;0.95;;;20.80;99.90;;;;;;5033957;28;20044;-81
2023/08/17 10:28:50;;;;;;;7.35;1.13;;;21.00;99.90;;;;;;5050713;28;20406;-81
2023/08/17 10:31:16;;;;;;;2.53;1.30;;;21.20;99.90;;;;;;5044809;28;20040;-81
2023/08/17 10:33:45;;;;;;;4.50;1.23;;;21.30;99.90;;;;;;5050991;28;20055;-81
2023/08/17 10:36:12;;;;;;;3.55;1.25;;;21.40;99.90;;;;;;5067388;28;20033;-81
2023/08/17 10:38:38;;;;;;;4.18;1.17;;;21.40;99.90;;;;;;5048231;28;20127;-80
2023/08/17 10:41:11;;;;;;;4.68;1.40;;;21.30;99.90;;;;;;5069448;28;20155;-81
2023/08/17 10:43:57;;;;;;;5.30;1.40;;;21.30;99.90;;;;;;5039433;28;20119;-81
2023/08/17 10:46:39;;;;;;;5.43;1.30;;;21.20;99.90;;;;;;5062253;28;20119;-81
2023/08/17 10:49:07;;;;;;;3.72;1.00;;;21.30;99.90;;;;;;5044651;28;20086;-82
2023/08/17 10:51:34;;;;;;;5.35;1.50;;;21.30;99.90;;;;;;5047284;28;20055;-81
2023/08/17 10:54:03;;;;;;;6.15;1.20;;;21.40;99.90;;;;;;5062657;28;20040;-81
2023/08/17 10:56:29;;;;;;;3.40;1.20;;;21.50;99.90;;;;;;5050675;28;20040;-81
2023/08/17 10:59:00;;;;;;;4.50;1.40;;;21.50;99.90;;;;;;5059973;28;20115;-81
2023/08/17 11:01:33;;;;;;;8.07;1.70;;;21.40;99.90;;;;;;5057699;28;20079;-81
2023/08/17 11:04:16;;;;;;;5.38;1.42;;;21.40;99.90;;;;;;5062050;28;20127;-81
2023/08/17 11:06:45;;;;;;;7.88;1.85;;;21.30;99.90;;;;;;5058346;28;20506;-81
2023/08/17 11:09:11;;;;;;;7.68;1.67;;;21.20;99.90;;;;;;5050323;28;20111;-81
2023/08/17 11:11:37;;;;;;;5.63;1.38;;;21.20;99.90;;;;;;5042094;28;20059;-81
2023/08/17 11:14:03;;;;;;;5.65;1.42;;;21.30;99.90;;;;;;5036570;28;20036;-81
2023/08/17 11:16:29;;;;;;;5.85;1.40;;;21.30;99.90;;;;;;5058011;28;20041;-81
2023/08/17 11:18:58;;;;;;;4.75;1.67;;;21.30;99.90;;;;;;5054398;28;20044;-81
2023/08/17 11:21:27;;;;;;;9.40;1.67;;;21.30;99.90;;;;;;5067967;28;20123;-82
2023/08/17 11:23:56;;;;;;;9.48;1.65;;;21.20;99.90;;;;;;5048968;28;20115;-81
2023/08/17 11:26:22;;;;;;;3.25;1.25;;;21.30;99.90;;;;;;5065103;28;20042;-81
2023/08/17 11:28:48;;;;;;;3.75;1.20;;;21.30;99.90;;;;;;5046714;28;20123;-82
2023/08/17 11:31:15;;;;;;;4.80;1.48;;;21.30;99.90;;;;;;5063880;28;20083;-81
2023/08/17 11:33:41;;;;;;;4.72;1.55;;;21.40;99.90;;;;;;5034613;28;20383;-81
2023/08/17 11:36:08;;;;;;;5.75;1.92;;;21.50;99.90;;;;;;5033967;28;20048;-82
2023/08/17 11:38:36;;;;;;;5.25;1.80;;;21.60;99.90;;;;;;5059760;28;20446;-81
2023/08/17 11:41:05;;;;;;;3.17;1.23;;;21.70;99.90;;;;;;5062794;28;20068;-82
2023/08/17 11:43:32;;;;;;;3.67;1.80;;;21.70;99.90;;;;;;5050444;28;20107;-80
2023/08/17 11:46:00;;;;;;;5.40;1.77;;;21.90;99.90;;;;;;5050428;28;20040;-81
2023/08/17 11:48:26;;;;;;;6.25;1.88;;;21.90;99.90;;;;;;5049063;28;20453;-81
2023/08/17 11:50:53;;;;;;;3.83;1.63;;;21.90;99.90;;;;;;5055652;28;20033;-80
2023/08/17 11:53:19;;;;;;;3.30;1.40;;;21.90;99.90;;;;;;5062853;28;20040;-80
2023/08/17 11:55:44;;;;;;;5.35;1.80;;;21.80;99.90;;;;;;5061286;28;20133;-80
2023/08/17 11:58:10;;;;;;;5.43;1.30;;;21.80;99.90;;;;;;5064904;28;20394;-81
2023/08/17 12:00:39;;;;;;;3.78;1.40;;;21.90;99.90;;;;;;5050061;28;20040;-81
2023/08/17 12:03:05;;;;;;;4.20;1.48;;;22.00;99.90;;;;;;5061454;28;20054;-81
2023/08/17 12:05:32;;;;;;;6.00;1.42;;;22.10;99.90;;;;;;5044756;28;20127;-81
2023/08/17 12:07:59;;;;;;;4.22;1.48;;;22.10;99.90;;;;;;5063410;28;20045;-81
2023/08/17 12:10:31;;;;;;;5.07;1.40;;;22.10;99.90;;;;;;5062041;28;20032;-81
2023/08/17 12:13:01;;;;;;;7.28;1.70;;;22.10;99.90;;;;;;5043344;28;20573;-81
2023/08/17 12:15:34;;;;;;;4.03;1.55;;;22.20;99.90;;;;;;5043786;28;20120;-81
2023/08/17 12:18:02;;;;;;;5.30;1.20;;;22.10;99.90;;;;;;5056482;28;20033;-82
2023/08/17 12:20:30;;;;;;;3.88;1.30;;;22.10;99.90;;;;;;5043434;28;20052;-81
2023/08/17 12:22:58;;;;;;;4.90;1.60;;;22.10;99.90;;;;;;5063175;28;20511;-81
2023/08/17 12:25:24;;;;;;;6.28;1.58;;;22.10;99.90;;;;;;5060011;28;20043;-81
2023/08/17 12:27:50;;;;;;;3.88;1.60;;;22.20;99.90;;;;;;5025899;28;20040;-78
2023/08/17 12:30:30;;;;;;;9.05;2.35;;;22.20;99.90;;;;;;5045241;28;20454;-78
2023/08/17 12:32:55;;;;;;;9.20;1.80;;;22.20;99.90;;;;;;5034525;28;20464;-89
2023/08/17 12:35:23;;;;;;;8.90;1.60;;;22.20;99.90;;;;;;5046117;28;20106;-82
2023/08/17 12:37:49;;;;;;;24.42;5.43;;;22.30;99.90;;;;;;5068108;28;20036;-82
2023/08/17 12:40:15;;;;;;;7.57;2.17;;;22.20;99.90;;;;;;5044968;28;20438;-81
2023/08/17 12:42:41;;;;;;;5.47;1.83;;;22.30;99.90;;;;;;5045465;28;20041;-82